createdAt,value
2023-04-29T00:00:40.368Z,11.15
2023-04-29T00:02:42.128Z,10.45
2023-04-29T00:04:43.807Z,9.77
2023-04-29T00:06:45.489Z,9.30
2023-04-29T00:08:46.898Z,10.07
2023-04-29T00:10:48.307Z,10.13
2023-04-29T00:12:51.501Z,10.73
2023-04-29T00:14:53.105Z,10.05
2023-04-29T00:16:54.538Z,10.48
2023-04-29T00:18:56.505Z,11.02
2023-04-29T00:20:57.897Z,12.07
2023-04-29T00:22:59.296Z,11.45
2023-04-29T00:25:00.682Z,10.85
2023-04-29T00:27:06.238Z,11.20
2023-04-29T00:29:07.638Z,10.63
2023-04-29T00:31:09.115Z,10.32
2023-04-29T00:33:10.820Z,9.93
2023-04-29T00:35:12.320Z,9.70
2023-04-29T00:37:13.762Z,9.63
2023-04-29T00:39:15.504Z,10.75
2023-04-29T00:41:17.038Z,9.75
2023-04-29T00:43:18.466Z,10.10
2023-04-29T00:45:19.892Z,9.75
2023-04-29T00:47:21.326Z,10.55
2023-04-29T00:49:23.018Z,9.40
2023-04-29T00:51:24.663Z,10.15
2023-04-29T00:53:26.178Z,11.18
2023-04-29T00:55:28.484Z,10.75
2023-04-29T00:57:30.522Z,11.93
2023-04-29T00:59:33.216Z,10.88
2023-04-29T01:01:35.252Z,10.98
2023-04-29T01:03:37.300Z,10.13
2023-04-29T01:05:38.973Z,10.05
2023-04-29T01:07:40.570Z,10.63
2023-04-29T01:09:53.463Z,11.88
2023-04-29T01:12:04.345Z,13.60
2023-04-29T01:14:05.764Z,11.30
2023-04-29T01:16:11.176Z,12.48
2023-04-29T01:18:15.875Z,13.82
2023-04-29T01:20:18.221Z,14.40
2023-04-29T01:22:21.708Z,13.20
2023-04-29T01:24:23.213Z,12.65
2023-04-29T01:26:24.887Z,13.20
2023-04-29T01:28:32.322Z,13.45
2023-04-29T01:30:33.829Z,13.80
2023-04-29T01:32:57.067Z,14.82
2023-04-29T01:35:04.400Z,13.15
2023-04-29T01:37:18.612Z,13.00
2023-04-29T01:39:28.821Z,12.90
2023-04-29T01:41:42.942Z,12.68
2023-04-29T01:43:47.905Z,13.05
2023-04-29T01:45:51.515Z,12.95
2023-04-29T01:47:53.953Z,13.25
2023-04-29T01:49:55.425Z,13.50
2023-04-29T01:51:57.055Z,13.75
2023-04-29T01:53:59.058Z,12.70
2023-04-29T01:56:00.470Z,12.55
2023-04-29T01:58:01.878Z,13.50
2023-04-29T02:00:03.468Z,13.43
2023-04-29T02:02:04.864Z,14.18
2023-04-29T02:04:06.750Z,13.10
2023-04-29T02:06:08.323Z,13.57
2023-04-29T02:08:09.715Z,13.45
2023-04-29T02:10:12.076Z,13.52
2023-04-29T02:12:13.477Z,13.07
2023-04-29T02:14:15.010Z,13.25
2023-04-29T02:16:16.568Z,14.52
2023-04-29T02:18:18.014Z,14.57
2023-04-29T02:20:19.404Z,14.35
2023-04-29T02:22:21.454Z,14.65
2023-04-29T02:24:23.027Z,13.50
2023-04-29T02:26:24.478Z,13.70
2023-04-29T02:28:26.097Z,15.15
2023-04-29T02:30:27.577Z,16.10
2023-04-29T02:32:29.101Z,14.00
2023-04-29T02:34:32.087Z,13.60
2023-04-29T02:36:33.600Z,12.38
2023-04-29T02:38:35.025Z,14.88
2023-04-29T02:40:41.368Z,14.18
2023-04-29T02:42:42.806Z,14.45
2023-04-29T02:44:44.474Z,13.60
2023-04-29T02:46:46.373Z,13.45
2023-04-29T02:48:47.881Z,13.57
2023-04-29T02:50:49.345Z,17.23
2023-04-29T02:52:50.762Z,67.00
2023-04-29T02:54:52.235Z,27.65
2023-04-29T02:56:53.853Z,17.88
2023-04-29T02:58:55.365Z,13.90
2023-04-29T03:00:56.801Z,15.20
2023-04-29T03:02:58.467Z,12.48
2023-04-29T03:04:59.917Z,12.82
2023-04-29T03:07:01.357Z,12.23
2023-04-29T03:09:02.784Z,12.95
2023-04-29T03:11:04.529Z,13.05
2023-04-29T03:13:05.938Z,11.95
2023-04-29T03:15:07.975Z,11.95
2023-04-29T03:17:09.418Z,11.93
2023-04-29T03:19:10.909Z,14.63
2023-04-29T03:21:12.362Z,13.43
2023-04-29T03:23:13.736Z,13.23
2023-04-29T03:25:15.158Z,12.27
2023-04-29T03:27:17.618Z,13.75
2023-04-29T03:29:19.103Z,12.32
2023-04-29T03:31:22.901Z,12.38
2023-04-29T03:33:24.810Z,12.30
2023-04-29T03:35:26.203Z,12.13
2023-04-29T03:37:27.679Z,12.25
2023-04-29T03:39:32.734Z,12.68
2023-04-29T03:41:34.246Z,12.27
2023-04-29T03:43:35.890Z,11.73
2023-04-29T03:45:37.487Z,12.20
2023-04-29T03:47:38.932Z,11.50
2023-04-29T03:49:40.463Z,11.52
2023-04-29T03:51:41.963Z,13.30
2023-04-29T03:53:43.483Z,12.38
2023-04-29T03:55:44.951Z,11.50
2023-04-29T03:57:46.365Z,11.60
2023-04-29T03:59:50.757Z,11.13
2023-04-29T04:01:54.265Z,11.40
2023-04-29T04:03:56.821Z,12.15
2023-04-29T04:05:58.289Z,12.32
2023-04-29T04:08:00.905Z,12.00
2023-04-29T04:10:02.481Z,14.00
2023-04-29T04:12:04.317Z,13.02
2023-04-29T04:14:05.949Z,12.63
2023-04-29T04:16:07.687Z,10.93
2023-04-29T04:18:09.309Z,12.30
2023-04-29T04:20:11.214Z,12.27
2023-04-29T04:22:13.054Z,12.55
2023-04-29T04:24:14.589Z,12.38
2023-04-29T04:26:16.029Z,12.05
2023-04-29T04:28:17.506Z,11.65
2023-04-29T04:30:18.998Z,11.73
2023-04-29T04:32:22.003Z,12.65
2023-04-29T04:34:23.518Z,13.57
2023-04-29T04:36:25.016Z,14.13
2023-04-29T04:38:27.872Z,13.20
2023-04-29T04:40:29.336Z,12.75
2023-04-29T04:42:30.743Z,12.90
2023-04-29T04:44:32.432Z,13.27
2023-04-29T04:46:33.902Z,12.52
2023-04-29T04:48:35.272Z,12.63
2023-04-29T04:50:36.722Z,12.27
2023-04-29T04:52:38.113Z,11.65
2023-04-29T04:54:39.569Z,11.65
2023-04-29T04:56:41.075Z,12.07
2023-04-29T04:58:42.475Z,11.35
2023-04-29T05:00:44.490Z,11.82
2023-04-29T05:02:46.151Z,11.13
2023-04-29T05:04:47.847Z,10.40
2023-04-29T05:06:49.297Z,11.40
2023-04-29T05:08:50.685Z,11.48
2023-04-29T05:10:54.080Z,12.55
2023-04-29T05:12:56.363Z,11.50
2023-04-29T05:14:57.976Z,12.50
2023-04-29T05:16:59.729Z,14.95
2023-04-29T05:19:01.302Z,15.43
2023-04-29T05:21:02.746Z,16.25
2023-04-29T05:23:04.187Z,19.80
2023-04-29T05:25:05.889Z,20.80
2023-04-29T05:27:07.326Z,24.50
2023-04-29T05:29:08.737Z,25.15
2023-04-29T05:31:10.521Z,23.58
2023-04-29T05:33:12.267Z,24.75
2023-04-29T05:35:13.714Z,20.60
2023-04-29T05:37:15.207Z,14.55
2023-04-29T05:39:17.635Z,15.55
2023-04-29T05:41:19.050Z,16.95
2023-04-29T05:43:20.447Z,18.30
2023-04-29T05:45:21.855Z,18.83
2023-04-29T05:47:23.321Z,15.15
2023-04-29T05:49:24.773Z,19.35
2023-04-29T05:51:26.277Z,25.85
2023-04-29T05:53:27.802Z,23.15
2023-04-29T05:55:29.245Z,21.20
2023-04-29T05:57:31.112Z,42.97
2023-04-29T05:59:33.053Z,44.60
2023-04-29T06:01:34.588Z,36.65
2023-04-29T06:03:36.311Z,68.30
2023-04-29T06:05:38.430Z,96.28
2023-04-29T06:07:40.120Z,71.63
2023-04-29T06:09:42.842Z,71.05
2023-04-29T06:11:45.102Z,31.77
2023-04-29T06:13:46.839Z,24.90
2023-04-29T06:15:48.430Z,27.60
2023-04-29T06:17:49.921Z,25.05
2023-04-29T06:19:52.000Z,20.15
2023-04-29T06:21:53.560Z,23.08
2023-04-29T06:23:55.101Z,21.77
2023-04-29T06:25:56.580Z,16.23
2023-04-29T06:27:58.353Z,17.15
2023-04-29T06:29:59.764Z,15.90
2023-04-29T06:32:01.494Z,14.85
2023-04-29T06:34:02.932Z,16.17
2023-04-29T06:36:04.537Z,18.67
2023-04-29T06:38:08.201Z,17.40
2023-04-29T06:40:09.895Z,13.48
2023-04-29T06:42:11.351Z,11.02
2023-04-29T06:44:12.762Z,11.25
2023-04-29T06:46:14.196Z,12.70
2023-04-29T06:48:15.757Z,10.50
2023-04-29T06:50:17.573Z,12.85
2023-04-29T06:52:19.130Z,14.13
2023-04-29T06:54:20.540Z,12.57
2023-04-29T06:56:21.962Z,11.77
2023-04-29T06:58:23.411Z,10.60
2023-04-29T07:00:24.797Z,13.18
2023-04-29T07:02:26.273Z,10.93
2023-04-29T07:04:27.767Z,10.80
2023-04-29T07:06:29.559Z,11.68
2023-04-29T07:08:31.335Z,11.23
2023-04-29T07:10:32.771Z,10.43
2023-04-29T07:12:34.196Z,10.13
2023-04-29T07:14:37.450Z,10.00
2023-04-29T07:16:38.924Z,9.95
2023-04-29T07:18:40.525Z,10.70
2023-04-29T07:20:42.491Z,10.27
2023-04-29T07:22:43.936Z,9.60
2023-04-29T07:24:45.472Z,8.88
2023-04-29T07:26:46.862Z,8.20
2023-04-29T07:28:48.859Z,9.50
2023-04-29T07:30:50.425Z,9.77
2023-04-29T07:32:51.938Z,8.40
2023-04-29T07:34:54.035Z,21.27
2023-04-29T07:36:56.306Z,12.10
2023-04-29T07:38:57.735Z,9.55
2023-04-29T07:40:59.231Z,12.82
2023-04-29T07:43:04.774Z,10.80
2023-04-29T07:45:06.614Z,10.20
2023-04-29T07:47:08.026Z,10.52
2023-04-29T07:49:09.494Z,12.93
2023-04-29T07:51:17.148Z,11.30
2023-04-29T07:53:18.572Z,14.23
2023-04-29T07:55:19.983Z,10.82
2023-04-29T07:57:21.558Z,11.02
2023-04-29T07:59:23.120Z,11.20
2023-04-29T08:01:24.881Z,12.65
2023-04-29T08:03:27.289Z,10.40
2023-04-29T08:05:30.733Z,8.25
2023-04-29T08:07:32.709Z,8.57
2023-04-29T08:09:34.387Z,9.35
2023-04-29T08:11:35.972Z,10.30
2023-04-29T08:13:38.582Z,10.68
2023-04-29T08:15:40.076Z,8.52
2023-04-29T08:17:41.618Z,9.00
2023-04-29T08:19:43.131Z,8.40
2023-04-29T08:21:44.710Z,8.55
2023-04-29T08:23:46.152Z,8.13
2023-04-29T08:25:47.592Z,7.90
2023-04-29T08:27:49.298Z,7.90
2023-04-29T08:29:51.087Z,8.15
2023-04-29T08:31:52.589Z,7.57
2023-04-29T08:33:54.104Z,8.25
2023-04-29T08:35:59.758Z,8.20
2023-04-29T08:38:01.156Z,9.05
2023-04-29T08:40:03.641Z,7.47
2023-04-29T08:42:08.910Z,7.15
2023-04-29T08:44:10.402Z,8.40
2023-04-29T08:46:11.932Z,7.90
2023-04-29T08:48:13.587Z,7.13
2023-04-29T08:50:15.367Z,6.93
2023-04-29T08:52:16.805Z,7.45
2023-04-29T08:54:18.541Z,8.25
2023-04-29T08:56:23.259Z,9.13
2023-04-29T08:58:26.447Z,8.23
2023-04-29T09:00:28.098Z,6.80
2023-04-29T09:02:29.588Z,7.22
2023-04-29T09:04:49.726Z,7.25
2023-04-29T09:06:52.761Z,6.78
2023-04-29T09:08:54.474Z,7.22
2023-04-29T09:10:56.568Z,6.72
2023-04-29T09:13:01.334Z,7.05
2023-04-29T09:15:03.330Z,6.95
2023-04-29T09:17:04.770Z,6.53
2023-04-29T09:19:06.514Z,7.47
2023-04-29T09:21:23.408Z,6.30
2023-04-29T09:23:36.719Z,6.10
2023-04-29T09:25:38.230Z,6.93
2023-04-29T09:27:39.829Z,6.13
2023-04-29T09:30:00.054Z,11.95
2023-04-29T09:32:01.600Z,6.55
2023-04-29T09:34:03.016Z,8.38
2023-04-29T09:36:04.539Z,5.95
2023-04-29T09:38:11.132Z,5.82
2023-04-29T09:40:30.812Z,6.32
2023-04-29T09:42:42.310Z,7.28
2023-04-29T09:44:44.279Z,7.10
2023-04-29T09:46:59.178Z,6.68
2023-04-29T09:49:01.087Z,8.55
2023-04-29T09:51:06.124Z,7.05
2023-04-29T09:53:10.928Z,6.45
2023-04-29T09:55:15.414Z,5.80
2023-04-29T09:57:18.963Z,5.95
2023-04-29T09:59:20.876Z,5.93
2023-04-29T10:01:22.582Z,7.05
2023-04-29T10:03:24.624Z,7.03
2023-04-29T10:05:27.853Z,7.75
2023-04-29T10:07:29.869Z,7.13
2023-04-29T10:09:31.494Z,7.30
2023-04-29T10:11:33.530Z,5.93
2023-04-29T10:13:35.522Z,7.18
2023-04-29T10:15:43.018Z,8.80
2023-04-29T10:17:50.093Z,8.75
2023-04-29T10:19:58.563Z,7.35
2023-04-29T10:22:01.389Z,7.75
2023-04-29T10:24:03.672Z,6.07
2023-04-29T10:26:05.718Z,8.90
2023-04-29T10:28:09.484Z,4.57
2023-04-29T10:30:15.097Z,7.32
2023-04-29T10:32:17.438Z,14.27
2023-04-29T10:34:19.499Z,13.18
2023-04-29T10:36:21.692Z,13.80
2023-04-29T10:38:26.147Z,14.43
2023-04-29T10:40:27.581Z,13.90
2023-04-29T10:42:43.445Z,25.45
2023-04-29T10:45:03.409Z,9.88
2023-04-29T10:49:07.315Z,8.45
2023-04-29T10:51:08.804Z,8.38
2023-04-29T10:53:10.232Z,7.57
2023-04-29T10:55:12.338Z,8.00
2023-04-29T10:57:20.736Z,12.15
2023-04-29T10:59:42.074Z,10.65
2023-04-29T11:01:45.054Z,4.95
2023-04-29T11:03:46.794Z,4.78
2023-04-29T11:05:48.268Z,6.05
2023-04-29T11:08:08.646Z,6.38
2023-04-29T11:10:10.114Z,9.73
2023-04-29T11:12:11.824Z,4.50
2023-04-29T11:14:13.901Z,5.07
2023-04-29T11:16:15.515Z,6.20
2023-04-29T11:18:17.026Z,5.55
2023-04-29T11:20:18.562Z,5.18
2023-04-29T11:22:22.600Z,5.40
2023-04-29T11:24:24.353Z,6.72
2023-04-29T11:26:25.833Z,7.93
2023-04-29T11:28:31.222Z,5.60
2023-04-29T11:30:32.841Z,5.15
2023-04-29T11:32:36.046Z,5.07
2023-04-29T11:34:37.780Z,5.00
2023-04-29T11:36:39.212Z,6.78
2023-04-29T11:38:41.884Z,6.97
2023-04-29T11:40:49.030Z,6.20
2023-04-29T11:42:50.411Z,5.65
2023-04-29T11:44:52.742Z,5.72
2023-04-29T11:47:01.780Z,5.70
2023-04-29T11:49:03.745Z,7.35
2023-04-29T11:51:05.582Z,5.28
2023-04-29T11:53:07.936Z,5.63
2023-04-29T11:55:09.484Z,5.32
2023-04-29T11:57:11.202Z,5.90
2023-04-29T11:59:13.349Z,5.38
2023-04-29T12:01:15.298Z,5.20
2023-04-29T12:03:17.446Z,5.40
2023-04-29T12:05:19.587Z,4.68
2023-04-29T12:07:21.802Z,6.78
2023-04-29T12:09:23.578Z,9.57
2023-04-29T12:11:26.862Z,5.82
2023-04-29T12:13:31.379Z,6.18
2023-04-29T12:15:33.016Z,10.63
2023-04-29T12:17:34.624Z,7.93
2023-04-29T12:19:39.878Z,8.15
2023-04-29T12:21:48.731Z,8.02
2023-04-29T12:23:51.266Z,7.18
2023-04-29T12:25:53.861Z,7.40
2023-04-29T12:27:59.269Z,7.10
2023-04-29T12:30:00.915Z,6.53
2023-04-29T12:32:02.814Z,6.97
2023-04-29T12:34:07.502Z,6.45
2023-04-29T12:36:20.891Z,8.18
2023-04-29T12:38:27.770Z,7.18
2023-04-29T12:40:30.354Z,6.47
2023-04-29T12:42:32.607Z,7.90
2023-04-29T12:44:40.865Z,8.38
2023-04-29T12:46:42.586Z,14.60
2023-04-29T12:48:44.503Z,7.13
2023-04-29T12:50:49.522Z,8.27
2023-04-29T12:52:51.205Z,7.22
2023-04-29T12:54:52.829Z,8.00
2023-04-29T12:56:54.667Z,8.55
2023-04-29T12:58:56.333Z,8.35
2023-04-29T13:00:58.558Z,8.45
2023-04-29T13:03:01.667Z,6.40
2023-04-29T13:05:04.599Z,8.90
2023-04-29T13:07:06.471Z,10.40
2023-04-29T13:09:17.013Z,7.63
2023-04-29T13:11:20.191Z,6.80
2023-04-29T13:13:21.787Z,7.75
2023-04-29T13:15:23.215Z,7.72
2023-04-29T13:17:24.732Z,9.27
2023-04-29T13:19:43.446Z,8.27
2023-04-29T13:21:48.525Z,8.75
2023-04-29T13:23:50.255Z,8.40
2023-04-29T13:25:51.706Z,7.07
2023-04-29T13:27:53.108Z,7.72
2023-04-29T13:29:54.649Z,6.68
2023-04-29T13:31:56.506Z,7.13
2023-04-29T13:33:58.423Z,7.03
2023-04-29T13:35:59.976Z,6.32
2023-04-29T13:38:02.011Z,7.00
2023-04-29T13:40:07.086Z,5.93
2023-04-29T13:42:10.459Z,6.55
2023-04-29T13:44:23.510Z,7.13
2023-04-29T13:49:08.871Z,8.48
2023-04-29T13:55:58.759Z,6.75
2023-04-29T13:58:20.671Z,6.28
2023-04-29T13:59:53.389Z,6.32
2023-04-29T14:02:23.084Z,10.65
2023-04-29T14:04:16.542Z,13.40
2023-04-29T14:06:18.404Z,36.05
2023-04-29T14:08:19.845Z,19.20
2023-04-29T14:10:21.286Z,8.55
2023-04-29T14:12:22.697Z,7.78
2023-04-29T14:14:24.420Z,9.73
2023-04-29T14:16:26.377Z,9.07
2023-04-29T14:18:30.091Z,8.25
2023-04-29T14:20:31.678Z,8.25
2023-04-29T14:22:33.121Z,7.78
2023-04-29T14:24:34.519Z,7.63
2023-04-29T14:26:37.271Z,7.15
2023-04-29T14:28:38.694Z,8.52
2023-04-29T14:30:41.153Z,7.68
2023-04-29T14:32:42.771Z,8.65
2023-04-29T14:34:44.243Z,8.60
2023-04-29T14:36:46.853Z,8.02
2023-04-29T14:38:48.446Z,7.35
2023-04-29T14:40:49.903Z,8.30
2023-04-29T14:42:51.428Z,7.68
2023-04-29T14:44:54.563Z,7.70
2023-04-29T14:46:56.778Z,8.52
2023-04-29T14:48:58.194Z,8.00
2023-04-29T14:50:59.599Z,9.15
2023-04-29T14:53:01.553Z,9.68
2023-04-29T14:55:03.027Z,23.17
2023-04-29T14:57:04.676Z,18.98
2023-04-29T14:59:08.723Z,20.40
2023-04-29T15:01:10.227Z,16.63
2023-04-29T15:03:20.163Z,18.15
2023-04-29T15:05:24.096Z,11.55
2023-04-29T15:07:25.934Z,11.15
2023-04-29T15:09:27.379Z,10.13
2023-04-29T15:11:28.815Z,12.60
2023-04-29T15:13:31.982Z,11.38
2023-04-29T15:15:33.612Z,11.73
2023-04-29T15:17:35.082Z,10.77
2023-04-29T15:19:36.829Z,11.43
2023-04-29T15:21:38.199Z,10.98
2023-04-29T15:23:39.676Z,9.93
2023-04-29T15:25:41.048Z,12.10
2023-04-29T15:27:42.499Z,13.18
2023-04-29T15:29:44.101Z,14.52
2023-04-29T15:31:45.584Z,11.93
2023-04-29T15:33:47.057Z,13.35
2023-04-29T15:35:48.535Z,13.45
2023-04-29T15:37:50.141Z,12.32
2023-04-29T15:39:51.817Z,12.90
2023-04-29T15:41:53.987Z,12.50
2023-04-29T15:43:57.245Z,17.85
2023-04-29T15:45:59.241Z,18.45
2023-04-29T15:48:00.829Z,18.13
2023-04-29T15:50:02.300Z,17.80
2023-04-29T15:52:04.081Z,15.30
2023-04-29T15:54:05.571Z,15.82
2023-04-29T15:56:07.021Z,17.83
2023-04-29T15:58:08.419Z,16.80
2023-04-29T16:00:10.152Z,15.43
2023-04-29T16:02:11.996Z,15.90
2023-04-29T16:04:13.476Z,12.48
2023-04-29T16:06:16.291Z,12.82
2023-04-29T16:08:17.910Z,13.13
2023-04-29T16:10:19.884Z,14.43
2023-04-29T16:12:21.419Z,13.57
2023-04-29T16:14:23.003Z,11.93
2023-04-29T16:16:25.614Z,15.70
2023-04-29T16:18:27.159Z,13.23
2023-04-29T16:20:28.626Z,14.35
2023-04-29T16:22:31.210Z,14.27
2023-04-29T16:24:32.634Z,11.95
2023-04-29T16:26:34.184Z,13.15
2023-04-29T16:28:35.638Z,11.38
2023-04-29T16:30:38.950Z,10.93
2023-04-29T16:32:42.732Z,12.93
2023-04-29T16:34:44.189Z,14.63
2023-04-29T16:36:45.576Z,27.17
2023-04-29T16:38:46.999Z,11.98
2023-04-29T16:40:51.494Z,11.40
2023-04-29T16:42:53.548Z,15.48
2023-04-29T16:44:55.004Z,12.00
2023-04-29T16:46:56.831Z,8.63
2023-04-29T16:48:58.328Z,5.00
2023-04-29T16:50:59.794Z,6.93
2023-04-29T16:53:01.392Z,9.65
2023-04-29T16:55:03.773Z,11.65
2023-04-29T16:57:05.620Z,8.40
2023-04-29T16:59:07.096Z,7.40
2023-04-29T17:01:08.603Z,7.93
2023-04-29T17:03:10.382Z,32.30
2023-04-29T17:05:12.076Z,5.72
2023-04-29T17:07:19.453Z,7.70
2023-04-29T17:09:23.811Z,12.35
2023-04-29T17:11:25.294Z,19.08
2023-04-29T17:13:27.331Z,19.65
2023-04-29T17:15:29.410Z,17.13
2023-04-29T17:17:31.138Z,12.02
2023-04-29T17:19:32.906Z,11.23
2023-04-29T17:21:34.354Z,12.50
2023-04-29T17:23:37.584Z,13.25
2023-04-29T17:25:39.181Z,30.00
2023-04-29T17:27:40.940Z,27.88
2023-04-29T17:29:42.547Z,24.23
2023-04-29T17:31:54.119Z,23.20
2023-04-29T17:34:05.051Z,21.90
2023-04-29T17:36:06.653Z,19.85
2023-04-29T17:38:08.426Z,15.10
2023-04-29T17:40:10.604Z,16.48
2023-04-29T17:42:12.184Z,17.40
2023-04-29T17:44:13.587Z,21.00
2023-04-29T17:46:15.055Z,19.55
2023-04-29T17:48:18.568Z,18.75
2023-04-29T17:50:20.019Z,18.33
2023-04-29T17:52:21.561Z,19.58
2023-04-29T17:54:23.057Z,21.38
2023-04-29T17:56:24.478Z,22.45
2023-04-29T17:58:28.889Z,21.50
2023-04-29T18:00:32.043Z,22.63
2023-04-29T18:02:33.845Z,25.17
2023-04-29T18:04:35.425Z,34.15
2023-04-29T18:06:37.001Z,23.27
2023-04-29T18:08:38.487Z,20.95
2023-04-29T18:10:40.034Z,17.58
2023-04-29T18:12:41.468Z,18.88
2023-04-29T18:14:42.885Z,21.27
2023-04-29T18:16:44.902Z,23.52
2023-04-29T18:18:46.451Z,19.88
2023-04-29T18:20:47.832Z,19.80
2023-04-29T18:22:50.632Z,22.45
2023-04-29T18:24:52.198Z,25.23
2023-04-29T18:26:53.616Z,27.30
2023-04-29T18:28:55.055Z,28.10
2023-04-29T18:30:57.086Z,27.42
2023-04-29T18:32:58.691Z,30.17
2023-04-29T18:35:00.148Z,29.65
2023-04-29T18:37:02.870Z,30.58
2023-04-29T18:39:04.398Z,30.30
2023-04-29T18:41:08.576Z,30.70
2023-04-29T18:43:12.051Z,31.50
2023-04-29T18:45:13.482Z,32.90
2023-04-29T18:47:15.192Z,33.70
2023-04-29T18:49:18.015Z,30.85
2023-04-29T18:51:19.662Z,29.17
2023-04-29T18:53:21.080Z,24.48
2023-04-29T18:55:22.671Z,24.05
2023-04-29T18:57:24.086Z,26.95
2023-04-29T18:59:26.939Z,32.20
2023-04-29T19:01:28.357Z,38.72
2023-04-29T19:03:30.028Z,33.30
2023-04-29T19:05:32.198Z,27.25
2023-04-29T19:07:33.604Z,85.57
2023-04-29T19:09:35.102Z,114.07
2023-04-29T19:11:36.689Z,28.98
2023-04-29T19:13:38.195Z,25.70
2023-04-29T19:15:39.704Z,25.38
2023-04-29T19:17:41.440Z,22.73
2023-04-29T19:19:42.893Z,23.15
2023-04-29T19:21:44.702Z,22.02
2023-04-29T19:23:46.458Z,22.95
2023-04-29T19:25:47.837Z,74.80
2023-04-29T19:27:51.146Z,29.42
2023-04-29T19:29:52.990Z,27.77
2023-04-29T19:31:54.585Z,34.58
2023-04-29T19:33:56.119Z,46.08
2023-04-29T19:35:57.642Z,163.88
2023-04-29T19:37:59.163Z,109.10
2023-04-29T19:40:00.707Z,104.78
2023-04-29T19:42:04.074Z,84.65
2023-04-29T19:44:06.476Z,73.30
2023-04-29T19:46:07.969Z,67.63
2023-04-29T19:48:09.554Z,70.82
2023-04-29T19:50:11.156Z,56.97
2023-04-29T19:52:12.578Z,70.88
2023-04-29T19:54:14.167Z,59.38
2023-04-29T19:56:16.327Z,51.47
2023-04-29T19:58:17.880Z,43.35
2023-04-29T20:00:19.347Z,34.92
2023-04-29T20:02:20.851Z,32.20
2023-04-29T20:04:24.523Z,30.40
2023-04-29T20:06:25.989Z,30.52
2023-04-29T20:08:27.710Z,34.83
2023-04-29T20:10:30.015Z,36.08
2023-04-29T20:12:31.901Z,34.83
2023-04-29T20:14:33.369Z,35.75
2023-04-29T20:16:35.637Z,33.08
2023-04-29T20:18:37.256Z,37.85
2023-04-29T20:20:38.676Z,48.88
2023-04-29T20:22:40.235Z,55.38
2023-04-29T20:24:41.786Z,58.47
2023-04-29T20:26:43.212Z,58.47
2023-04-29T20:28:44.772Z,52.65
2023-04-29T20:30:46.272Z,43.78
2023-04-29T20:32:48.364Z,43.53
2023-04-29T20:34:49.828Z,36.85
2023-04-29T20:36:51.244Z,40.28
2023-04-29T20:38:52.665Z,44.17
2023-04-29T20:40:54.445Z,43.95
2023-04-29T20:42:55.916Z,45.85
2023-04-29T20:44:57.359Z,54.30
2023-04-29T20:46:58.891Z,48.90
2023-04-29T20:49:00.266Z,46.13
2023-04-29T20:51:01.896Z,46.90
2023-04-29T20:53:03.423Z,47.25
2023-04-29T20:55:04.999Z,43.80
2023-04-29T20:57:06.520Z,44.50
2023-04-29T20:59:07.920Z,44.67
2023-04-29T21:01:09.466Z,45.15
2023-04-29T21:03:11.113Z,50.95
2023-04-29T21:05:12.616Z,54.35
2023-04-29T21:07:14.200Z,46.50
2023-04-29T21:09:17.667Z,43.13
2023-04-29T21:11:19.093Z,45.35
2023-04-29T21:13:20.558Z,41.25
2023-04-29T21:15:22.146Z,40.78
2023-04-29T21:17:23.553Z,43.03
2023-04-29T21:19:24.986Z,41.45
2023-04-29T21:21:26.495Z,41.10
2023-04-29T21:23:27.917Z,37.85
2023-04-29T21:25:29.315Z,40.00
2023-04-29T21:27:30.964Z,38.80
2023-04-29T21:29:34.625Z,44.90
2023-04-29T21:31:36.082Z,32.00
2023-04-29T21:33:37.540Z,21.58
2023-04-29T21:35:42.016Z,19.10
2023-04-29T21:37:43.650Z,18.60
2023-04-29T21:39:45.133Z,19.23
2023-04-29T21:41:46.590Z,18.02
2023-04-29T21:43:48.651Z,17.10
2023-04-29T21:45:50.324Z,16.02
2023-04-29T21:47:51.939Z,16.83
2023-04-29T21:49:54.014Z,16.48
2023-04-29T21:51:55.880Z,16.08
2023-04-29T21:53:57.409Z,17.83
2023-04-29T21:55:59.020Z,16.90
2023-04-29T21:58:00.475Z,15.43
2023-04-29T22:00:02.025Z,16.05
2023-04-29T22:02:14.346Z,18.55
2023-04-29T22:04:16.958Z,15.70
2023-04-29T22:06:18.437Z,17.52
2023-04-29T22:08:20.014Z,15.05
2023-04-29T22:10:21.577Z,15.93
2023-04-29T22:12:22.992Z,15.98
2023-04-29T22:14:24.371Z,15.45
2023-04-29T22:16:25.972Z,16.40
2023-04-29T22:18:27.421Z,15.43
2023-04-29T22:20:28.834Z,16.80
2023-04-29T22:22:30.259Z,17.77
2023-04-29T22:24:31.712Z,17.20
2023-04-29T22:26:33.161Z,16.85
2023-04-29T22:28:34.655Z,17.33
2023-04-29T22:30:36.093Z,16.98
2023-04-29T22:32:37.553Z,16.63
2023-04-29T22:34:40.160Z,15.13
2023-04-29T22:36:41.579Z,16.20
2023-04-29T22:38:43.021Z,16.42
2023-04-29T22:40:51.036Z,15.30
2023-04-29T22:42:52.430Z,14.88
2023-04-29T22:44:53.932Z,16.20
2023-04-29T22:46:55.370Z,16.40
2023-04-29T22:48:56.907Z,17.75
2023-04-29T22:51:03.803Z,17.02
2023-04-29T22:53:05.229Z,16.58
2023-04-29T22:55:07.185Z,20.20
2023-04-29T22:57:08.681Z,20.10
2023-04-29T22:59:10.038Z,19.85
2023-04-29T23:01:12.129Z,17.23
2023-04-29T23:03:13.822Z,19.50
2023-04-29T23:05:15.453Z,19.20
2023-04-29T23:07:17.060Z,21.10
2023-04-29T23:09:19.051Z,20.42
2023-04-29T23:11:21.784Z,18.45
2023-04-29T23:13:23.319Z,17.90
2023-04-29T23:15:25.902Z,17.83
2023-04-29T23:17:27.297Z,17.92
2023-04-29T23:19:28.753Z,18.52
2023-04-29T23:21:30.203Z,19.67
2023-04-29T23:23:31.600Z,20.20
2023-04-29T23:25:33.016Z,20.88
2023-04-29T23:27:34.499Z,21.35
2023-04-29T23:29:36.228Z,21.35
2023-04-29T23:31:37.724Z,21.00
2023-04-29T23:33:39.134Z,21.30
2023-04-29T23:35:40.674Z,20.77
2023-04-29T23:37:42.349Z,21.92
2023-04-29T23:39:44.056Z,21.15
2023-04-29T23:41:45.530Z,22.40
2023-04-29T23:43:46.945Z,22.17
2023-04-29T23:45:48.365Z,22.73
2023-04-29T23:47:49.857Z,21.98
2023-04-29T23:49:51.269Z,21.67
2023-04-29T23:51:52.646Z,22.90
2023-04-29T23:53:54.070Z,20.73
2023-04-29T23:55:55.506Z,21.13
2023-04-29T23:57:57.061Z,21.08
2023-04-29T23:59:59.590Z,21.42
